Weather at Hartsfield Jackson Atlanta International Airport

Public forecast

Using degrees Fahrenheit for public forecast. Weather courtesy of forecast.io.

Current aviation weather report (METAR) for Hartsfield Jackson Atlanta International Airport

Retrieved 2021/07/28 21:52 UTC (40 minutes ago):

KATL 282152Z 33010KT 10SM SCT055TCU SCT085 SCT250 34/21 A2999 RMK AO2 SLP144 TCU OHD-SE T03390211

Aviation forecast (TAF) for Hartsfield Jackson Atlanta International Airport

Retrieved 2021/07/28 18:33 UTC (4 hours ago):

TAF KATL 281731Z 2818/2924 34006KT P6SM SCT040 FM290000 VRB03KT P6SM FEW070 FM290600 VRB03KT P6SM SKC FM291600 29005KT P6SM FEW060